Time;durP1;ratioP1;P1;durP2;ratioP2;P2;SDS_P1;SDS_P2;PMS_P1;PMS_P2;Temp;Humidity;BMP_temperature;BMP_pressure;BME280_temperature;BME280_humidity;BME280_pressure;Samples;Min_cycle;Max_cycle;Signal;HPM_P1;HPM_P2
2023/10/15 00:00:16;;;;;;;4.43;0.55;;;;;;;;;;5113408;27;20407;-64
2023/10/15 00:02:43;;;;;;;9.00;2.15;;;;;;;;;;5116222;27;20050;-64
2023/10/15 00:05:12;;;;;;;8.38;2.05;;;;;;;;;;5133851;27;20123;-63
2023/10/15 00:07:39;;;;;;;5.55;1.00;;;;;;;;;;5123613;27;20055;-63
2023/10/15 00:10:12;;;;;;;4.18;0.85;;;;;;;;;;5114655;27;20511;-63
2023/10/15 00:12:43;;;;;;;3.53;0.55;;;;;;;;;;5120195;27;20123;-63
2023/10/15 00:15:19;;;;;;;5.60;0.80;;;;;;;;;;5077460;28;20055;-64
2023/10/15 00:17:46;;;;;;;4.68;0.80;;;;;;;;;;5108390;27;20047;-64
2023/10/15 00:20:16;;;;;;;5.38;0.63;;;;;;;;;;5116757;27;20062;-64
2023/10/15 00:22:42;;;;;;;3.72;0.60;;;;;;;;;;5134201;27;20043;-63
2023/10/15 00:25:15;;;;;;;2.10;0.80;;;;;;;;;;5115369;27;20131;-64
2023/10/15 00:27:41;;;;;;;4.50;0.93;;;;;;;;;;5133453;27;20459;-63
2023/10/15 00:30:12;;;;;;;7.40;1.58;;;;;;;;;;5113670;27;20534;-63
2023/10/15 00:32:40;;;;;;;3.88;0.68;;;;;;;;;;5112215;27;20047;-63
2023/10/15 00:35:06;;;;;;;2.08;0.57;;;;;;;;;;5105234;27;20097;-63
2023/10/15 00:37:35;;;;;;;7.60;1.05;;;;;;;;;;5076325;28;20074;-63
2023/10/15 00:40:04;;;;;;;5.45;0.73;;;;;;;;;;5113386;28;20403;-63
2023/10/15 00:42:30;;;;;;;3.85;0.73;;;;;;;;;;5106355;27;20436;-62
2023/10/15 00:44:57;;;;;;;3.00;0.90;;;;;;;;;;5107042;27;20097;-62
2023/10/15 00:47:23;;;;;;;3.42;0.70;;;;;;;;;;5112964;27;20050;-63
2023/10/15 00:49:49;;;;;;;2.38;0.65;;;;;;;;;;5110735;28;20130;-63
2023/10/15 00:52:15;;;;;;;4.63;0.65;;;;;;;;;;5120756;27;20039;-63
2023/10/15 00:54:41;;;;;;;3.05;0.73;;;;;;;;;;5115155;27;20564;-63
2023/10/15 00:57:25;;;;;;;5.63;0.90;;;;;;;;;;5080099;28;20047;-62
2023/10/15 00:59:54;;;;;;;3.38;0.90;;;;;;;;;;5094915;28;20051;-63
2023/10/15 01:02:28;;;;;;;6.18;0.90;;;;;;;;;;5117444;27;20119;-63
2023/10/15 01:04:58;;;;;;;7.07;0.90;;;;;;;;;;5116056;27;20054;-63
2023/10/15 01:07:33;;;;;;;10.87;1.97;;;;;;;;;;5111417;28;20096;-61
2023/10/15 01:10:00;;;;;;;7.47;1.33;;;;;;;;;;5105870;27;20289;-62
2023/10/15 01:12:32;;;;;;;7.90;0.98;;;;;;;;;;5112922;27;20050;-65
2023/10/15 01:14:59;;;;;;;3.78;0.90;;;;;;;;;;5115911;28;20122;-64
2023/10/15 01:17:37;;;;;;;5.57;1.33;;;;;;;;;;5112402;28;20036;-65
2023/10/15 01:20:08;;;;;;;7.78;1.63;;;;;;;;;;5102262;28;20546;-66
2023/10/15 01:22:33;;;;;;;;;;;7.80;99.90;;;;;;5134045;28;20080;-64
2023/10/15 01:25:10;;;;;;;8.60;1.90;;;;;;;;;;5114630;28;19967;-64
2023/10/15 01:27:36;;;;;;;3.70;0.85;;;;;;;;;;5073770;28;20137;-65
2023/10/15 01:30:03;;;;;;;5.38;0.68;;;;;;;;;;5108354;28;20132;-64
2023/10/15 01:32:31;;;;;;;3.47;1.08;;;;;;;;;;5095507;28;20609;-64
2023/10/15 01:34:59;;;;;;;4.32;0.88;;;;;;;;;;5131359;28;20081;-64
2023/10/15 01:37:26;;;;;;;4.72;0.70;;;;;;;;;;5114531;28;20139;-64
2023/10/15 01:42:40;;;;;;;6.10;1.38;;;;;;;;;;5110410;28;20050;-64
2023/10/15 01:45:15;;;;;;;8.07;0.70;;;;;;;;;;5111867;28;20047;-64
2023/10/15 01:48:04;;;;;;;9.38;0.80;;;;;;;;;;5112712;28;20055;-64
2023/10/15 01:50:32;;;;;;;6.32;1.23;;;;;;;;;;5111283;28;20566;-64
2023/10/15 01:53:01;;;;;;;3.17;0.60;;;;;;;;;;5111873;28;20130;-63
2023/10/15 01:55:29;;;;;;;2.65;0.70;;;;;;;;;;5112333;28;20448;-63
2023/10/15 01:58:01;;;;;;;4.13;0.80;;;;;;;;;;5077223;28;20126;-64
2023/10/15 02:03:10;;;;;;;5.20;1.00;;;;;;;;;;5093961;28;20051;-63
2023/10/15 02:05:44;;;;;;;7.72;2.58;;;;;;;;;;5111799;28;20059;-63
2023/10/15 02:08:12;;;;;;;3.88;0.98;;;;;;;;;;5128751;28;20486;-63
2023/10/15 02:10:39;;;;;;;7.38;0.90;;;;;;;;;;5103162;28;20119;-63
2023/10/15 02:13:08;;;;;;;5.18;1.00;;;;;;;;;;5124693;28;20101;-63
2023/10/15 02:15:39;;;;;;;6.70;1.10;;;;;;;;;;5130810;28;20051;-63
2023/10/15 02:18:09;;;;;;;4.18;1.27;;;;;;;;;;5091629;28;20075;-63
2023/10/15 02:20:44;;;;;;;5.25;1.10;;;;;;;;;;5116832;27;20039;-63
2023/10/15 02:23:18;;;;;;;2.83;0.70;;;;;;;;;;5134273;27;20050;-63
2023/10/15 02:25:46;;;;;;;6.13;1.00;;;;;;;;;;5097568;27;20055;-63
2023/10/15 02:28:25;;;;;;;11.88;1.83;;;;;;;;;;5117839;27;20043;-63
2023/10/15 02:30:58;;;;;;;8.02;1.80;;;;;;;;;;5102594;27;20052;-63
2023/10/15 02:33:25;;;;;;;5.80;1.50;;;;;;;;;;5102511;28;20040;-63
2023/10/15 02:35:54;;;;;;;5.60;1.65;;;;;;;;;;5115677;27;20396;-63
2023/10/15 02:38:26;;;;;;;6.65;1.42;;;;;;;;;;5096076;28;20123;-63
2023/10/15 02:41:05;;;;;;;5.65;1.50;;;;;;;;;;5115258;28;20044;-63
2023/10/15 02:43:32;;;;;;;7.35;1.40;;;;;;;;;;5115763;28;20127;-63
2023/10/15 02:46:01;;;;;;;9.68;2.30;;;;;;;;;;5120419;27;20078;-62
2023/10/15 02:48:32;;;;;;;5.10;1.00;;;;;;;;;;5116175;27;20093;-62
2023/10/15 02:51:07;;;;;;;9.27;1.58;;;;;;;;;;5121391;27;20111;-62
2023/10/15 02:53:35;;;;;;;8.55;1.95;;;;;;;;;;5117544;27;20131;-62
2023/10/15 02:56:10;;;;;;;12.35;1.77;;;;;;;;;;5135633;27;20061;-63
2023/10/15 02:58:36;;;;;;;5.40;1.00;;;;;;;;;;5079958;28;20127;-63
2023/10/15 03:01:12;;;;;;;4.75;0.70;;;;;;;;;;5084568;28;20433;-62
2023/10/15 03:03:48;;;;;;;2.75;0.77;;;;;;;;;;5115259;28;20051;-62
2023/10/15 03:06:18;;;;;;;5.80;0.90;;;;;;;;;;5132184;27;20090;-63
2023/10/15 03:08:45;;;;;;;3.50;1.17;;;;;;;;;;5110275;27;20039;-62
2023/10/15 03:11:18;;;;;;;6.35;0.93;;;;;;;;;;5131952;27;20070;-63
2023/10/15 03:13:53;;;;;;;10.13;0.70;;;;;;;;;;5127955;27;20407;-63
2023/10/15 03:16:20;;;;;;;5.07;0.80;;;;;;;;;;5096452;28;20052;-62
2023/10/15 03:18:50;;;;;;;3.00;0.73;;;;;;;;;;5112790;27;20092;-62
2023/10/15 03:21:25;;;;;;;3.30;0.90;;;;;;;;;;5100868;28;20381;-63
2023/10/15 03:23:51;;;;;;;3.30;0.60;;;;;;;;;;5100877;28;20048;-63
2023/10/15 03:26:18;;;;;;;4.55;0.60;;;;;;;;;;5094276;28;20425;-63
2023/10/15 03:28:51;;;;;;;4.60;0.90;;;;;;;;;;5106164;28;20124;-62
2023/10/15 03:31:30;;;;;;;6.60;1.92;;;;;;;;;;5111443;28;20047;-63
2023/10/15 03:39:15;;;;;;;5.60;0.98;;;;;;;;;;5106261;27;20050;-62
2023/10/15 03:41:49;;;;;;;3.50;0.55;;;;;;;;;;5103814;27;20081;-63
2023/10/15 03:44:23;;;;;;;8.02;0.90;;;;;;;;;;5122463;27;20050;-62
2023/10/15 03:46:49;;;;;;;3.40;0.60;;;;;;;;;;5121989;27;20048;-63
2023/10/15 03:49:15;;;;;;;2.28;0.50;;;;;;;;;;5113959;27;20071;-63
2023/10/15 03:51:41;;;;;;;3.28;0.82;;;;;;;;;;5095420;27;20082;-62
2023/10/15 03:54:07;;;;;;;3.70;0.63;;;;;;;;;;5113872;27;20115;-63
2023/10/15 03:56:34;;;;;;;3.05;0.70;;;;;;;;;;5076260;28;20055;-63
2023/10/15 03:59:03;;;;;;;5.35;0.98;;;;;;;;;;5109313;28;20058;-63
2023/10/15 04:01:30;;;;;;;5.57;0.90;;;;;;;;;;5078884;28;20052;-63
2023/10/15 04:04:01;;;;;;;2.78;0.88;;;;;;;;;;5101629;27;20059;-63
2023/10/15 04:06:27;;;;;;;5.63;1.30;;;;;;;;;;5068459;28;20055;-62
2023/10/15 04:11:30;;;;;;;4.72;1.00;;;;;;;;;;5101493;28;20043;-63
2023/10/15 04:13:57;;;;;;;2.85;0.50;;;;;;;;;;5096007;28;20048;-63
2023/10/15 04:16:23;;;;;;;4.25;0.90;;;;;;;;;;5087405;28;20052;-63
2023/10/15 04:18:49;;;;;;;3.97;0.85;;;;;;;;;;5094877;28;20113;-62
2023/10/15 04:21:16;;;;;;;7.38;1.55;;;;;;;;;;5099137;27;20144;-62
2023/10/15 04:23:49;;;;;;;4.13;0.60;;;;;;;;;;5109273;28;20054;-62
2023/10/15 04:26:15;;;;;;;14.27;3.30;;;;;;;;;;5094996;28;20071;-62
2023/10/15 04:28:41;;;;;;;3.65;0.63;;;;;;;;;;5109654;27;20107;-62
2023/10/15 04:31:12;;;;;;;9.45;0.90;;;;;;;;;;5104437;27;20109;-62
2023/10/15 04:33:41;;;;;;;5.18;0.85;;;;;;;;;;5084652;28;20051;-62
2023/10/15 04:36:10;;;;;;;12.85;2.00;;;;;;;;;;5102148;28;20105;-62
2023/10/15 04:38:37;;;;;;;4.40;0.65;;;;;;;;;;5099076;28;20650;-63
2023/10/15 04:41:04;;;;;;;2.83;0.57;;;;;;;;;;5085058;27;20042;-63
2023/10/15 04:43:40;;;;;;;4.05;0.75;;;;;;;;;;5113126;28;20035;-63
2023/10/15 04:46:07;;;;;;;3.22;0.80;;;;;;;;;;5119792;27;20054;-63
2023/10/15 04:48:36;;;;;;;4.65;0.60;;;;;;;;;;5092982;28;20484;-63
2023/10/15 04:51:12;;;;;;;3.28;0.60;;;;;;;;;;5126199;27;20479;-62
2023/10/15 04:53:42;;;;;;;3.15;1.08;;;;;;;;;;5097872;28;20048;-63
2023/10/15 04:56:08;;;;;;;3.20;0.80;;;;;;;;;;5114729;27;20054;-63
2023/10/15 04:58:34;;;;;;;5.95;0.73;;;;;;;;;;5104477;27;20058;-63
2023/10/15 05:01:04;;;;;;;8.57;0.82;;;;;;;;;;5111439;27;21798;-62
2023/10/15 05:03:31;;;;;;;3.38;0.70;;;;;;;;;;5075011;28;20052;-63
2023/10/15 05:06:04;;;;;;;1.70;0.50;;;;;;;;;;5091252;28;20052;-63
2023/10/15 05:08:32;;;;;;;2.80;0.70;;;;;;;;;;5092647;28;20052;-63
2023/10/15 05:10:58;;;;;;;5.18;0.73;;;;;;;;;;5127998;27;20474;-63
2023/10/15 05:13:27;;;;;;;3.63;0.60;;;;;;;;;;5113433;28;20043;-62
2023/10/15 05:15:53;;;;;;;3.05;0.45;;;;;;;;;;5113382;28;20095;-64
2023/10/15 05:18:19;;;;;;;1.92;0.47;;;;;;;;;;5104691;28;20050;-64
2023/10/15 05:20:47;;;;;;;1.15;0.30;;;;;;;;;;5105049;28;20048;-64
2023/10/15 05:23:13;;;;;;;3.65;0.50;;;;;;;;;;5110652;28;20047;-64
2023/10/15 05:25:39;;;;;;;5.00;0.65;;;;;;;;;;5113057;28;20377;-64
2023/10/15 05:28:06;;;;;;;3.33;0.40;;;;;;;;;;5115123;28;20550;-64
2023/10/15 05:30:32;;;;;;;2.47;0.57;;;;;;;;;;5110896;28;20048;-64
2023/10/15 05:33:01;;;;;;;1.02;0.40;;;;;;;;;;5102132;28;20059;-64
2023/10/15 05:35:27;;;;;;;1.40;0.30;;;;;;;;;;5075576;28;20127;-63
2023/10/15 05:37:56;;;;;;;3.03;0.70;;;;;;;;;;5098592;28;20050;-63
2023/10/15 05:40:22;;;;;;;2.15;0.47;;;;;;;;;;5105578;28;20048;-63
2023/10/15 05:42:49;;;;;;;2.85;0.40;;;;;;;;;;5104087;28;20052;-63
2023/10/15 05:45:15;;;;;;;5.10;1.50;;;;;;;;;;5085010;28;20048;-64
2023/10/15 05:47:45;;;;;;;5.25;0.60;;;;;;;;;;5092346;28;20048;-62
2023/10/15 05:50:16;;;;;;;1.27;0.60;;;;;;;;;;5099323;28;20051;-61
2023/10/15 05:52:42;;;;;;;2.70;0.52;;;;;;;;;;5122744;28;20047;-62
2023/10/15 05:55:11;;;;;;;3.30;0.40;;;;;;;;;;5115135;28;20054;-63
2023/10/15 05:57:37;;;;;;;3.08;0.40;;;;;;;;;;5098428;27;20186;-62
2023/10/15 06:00:17;;;;;;;3.63;0.68;;;;;;;;;;5129490;27;20051;-63
2023/10/15 06:02:44;;;;;;;3.15;0.57;;;;;;;;;;5086197;28;20048;-64
2023/10/15 06:05:13;;;;;;;3.20;0.82;;;;;;;;;;5094359;27;20068;-65
2023/10/15 06:07:39;;;;;;;5.47;0.60;;;;;;;;;;5107486;27;20039;-65
2023/10/15 06:10:06;;;;;;;4.88;0.45;;;;;;;;;;5116271;27;20052;-66
2023/10/15 06:12:32;;;;;;;2.58;0.50;;;;;;;;;;5084307;28;20050;-66
2023/10/15 06:14:59;;;;;;;3.22;0.70;;;;;;;;;;5087215;28;20403;-65
2023/10/15 06:17:25;;;;;;;4.93;1.27;;;;;;;;;;5094900;28;20058;-66
2023/10/15 06:19:51;;;;;;;4.47;0.95;;;;;;;;;;5081255;28;20047;-65
2023/10/15 06:22:17;;;;;;;8.30;1.20;;;;;;;;;;5097751;28;20503;-65
2023/10/15 06:24:46;;;;;;;10.82;1.90;;;;;;;;;;5107034;28;20047;-65
2023/10/15 06:27:13;;;;;;;5.25;1.45;;;;;;;;;;5114218;28;20052;-64
2023/10/15 06:29:39;;;;;;;3.78;0.90;;;;;;;;;;5097445;27;20063;-65
2023/10/15 06:32:05;;;;;;;8.07;0.90;;;;;;;;;;5087348;27;20340;-65
2023/10/15 06:34:31;;;;;;;6.35;0.88;;;;;;;;;;5115935;28;20130;-65
2023/10/15 06:36:57;;;;;;;5.50;1.20;;;;;;;;;;5098122;28;20463;-66
2023/10/15 06:39:23;;;;;;;5.72;0.77;;;;;;;;;;5115567;28;20491;-65
2023/10/15 06:41:49;;;;;;;4.38;1.02;;;;;;;;;;5113043;28;20043;-66
2023/10/15 06:44:16;;;;;;;7.50;3.05;;;;;;;;;;5098259;27;20044;-66
2023/10/15 06:46:44;;;;;;;5.75;2.22;;;;;;;;;;5092110;28;20043;-66
2023/10/15 06:49:10;;;;;;;2.75;0.60;;;;;;;;;;5112271;27;20048;-65
2023/10/15 06:51:39;;;;;;;5.13;1.00;;;;;;;;;;5123194;27;20046;-65
2023/10/15 06:54:05;;;;;;;5.60;1.23;;;;;;;;;;5110646;27;20114;-65
2023/10/15 06:56:31;;;;;;;6.78;1.20;;;;;;;;;;5118310;27;20035;-65
2023/10/15 06:58:57;;;;;;;7.65;2.50;;;;;;;;;;5112083;28;20134;-65
2023/10/15 07:01:26;;;;;;;6.10;2.08;;;;;;;;;;5114592;28;20503;-65
2023/10/15 07:03:52;;;;;;;11.38;4.80;;;;;;;;;;5097288;28;20084;-66
2023/10/15 07:06:19;;;;;;;10.82;4.82;;;;;;;;;;5107327;27;20065;-65
2023/10/15 07:08:45;;;;;;;10.25;5.05;;;;;;;;;;5115357;28;20055;-65
2023/10/15 07:11:11;;;;;;;9.68;5.35;;;;;;;;;;5113826;27;20036;-65
2023/10/15 07:13:37;;;;;;;10.13;5.90;;;;;;;;;;5133168;27;20050;-65
2023/10/15 07:16:03;;;;;;;14.82;5.82;;;;;;;;;;5134930;27;20043;-65
2023/10/15 07:18:32;;;;;;;11.07;4.10;;;;;;;;;;5126899;27;20043;-65
2023/10/15 07:20:58;;;;;;;12.63;4.53;;;;;;;;;;5113380;27;20051;-65
2023/10/15 07:23:25;;;;;;;8.30;4.18;;;;;;;;;;5103972;28;20047;-64
2023/10/15 07:25:51;;;;;;;11.00;5.38;;;;;;;;;;5085885;28;20051;-64
2023/10/15 07:28:17;;;;;;;16.00;6.72;;;;;;;;;;5112433;28;20085;-65
2023/10/15 07:30:43;;;;;;;11.30;7.35;;;;;;;;;;5113770;28;20052;-64
2023/10/15 07:33:10;;;;;;;6.63;2.60;;;;;;;;;;5083337;28;20051;-64
2023/10/15 07:35:36;;;;;;;8.07;2.92;;;;;;;;;;5110116;28;20051;-65
2023/10/15 07:38:02;;;;;;;5.57;0.90;;;;;;;;;;5091721;28;20048;-64
2023/10/15 07:40:32;;;;;;;4.90;1.27;;;;;;;;;;5086680;27;20054;-65
2023/10/15 07:42:59;;;;;;;2.20;0.70;;;;;;;;;;5112414;27;20047;-65
2023/10/15 07:45:28;;;;;;;4.53;0.60;;;;;;;;;;5092295;28;20071;-64
2023/10/15 07:47:55;;;;;;;7.55;0.90;;;;;;;;;;5095237;27;20109;-65
2023/10/15 07:50:24;;;;;;;4.70;0.55;;;;;;;;;;5076472;28;20052;-65
2023/10/15 07:52:50;;;;;;;6.25;1.00;;;;;;;;;;5107934;28;20079;-65
2023/10/15 07:55:17;;;;;;;5.65;0.90;;;;;;;;;;5113010;28;20043;-65
2023/10/15 07:57:43;;;;;;;4.78;1.48;;;;;;;;;;5112560;28;20054;-65
2023/10/15 08:00:15;;;;;;;12.20;3.35;;;;;;;;;;5099427;27;20070;-64
2023/10/15 08:02:49;;;;;;;8.35;2.78;;;;;;;;;;5103579;28;20499;-64
2023/10/15 08:05:15;;;;;;;7.22;1.30;;;;;;;;;;5110540;28;20113;-64
2023/10/15 08:07:43;;;;;;;5.15;1.25;;;;;;;;;;5109209;27;20544;-64
2023/10/15 08:10:09;;;;;;;8.13;1.52;;;;;;;;;;5100454;27;20109;-64
2023/10/15 08:12:36;;;;;;;7.18;1.38;;;;;;;;;;5094971;28;20051;-64
2023/10/15 08:15:03;;;;;;;8.60;1.20;;;;;;;;;;5111858;28;20119;-63
2023/10/15 08:17:31;;;;;;;8.25;2.22;;;;;;;;;;5099319;27;20046;-64
2023/10/15 08:19:57;;;;;;;7.57;2.20;;;;;;;;;;5127094;27;20039;-64
2023/10/15 08:22:25;;;;;;;8.25;1.20;;;;;;;;;;5112113;28;20122;-63
2023/10/15 08:24:51;;;;;;;8.95;1.48;;;;;;;;;;5077294;28;20487;-63
2023/10/15 08:27:17;;;;;;;6.55;1.10;;;;;;;;;;5078064;28;20097;-63
2023/10/15 08:29:44;;;;;;;10.77;1.20;;;;;;;;;;5097231;28;20044;-63
2023/10/15 08:32:20;;;;;;;6.50;0.73;;;;;;;;;;5091279;28;20054;-62
2023/10/15 08:34:46;;;;;;;6.38;0.95;;;;;;;;;;5117485;27;20068;-64
2023/10/15 08:37:12;;;;;;;6.80;0.82;;;;;;;;;;5112824;28;20070;-63
2023/10/15 08:39:39;;;;;;;4.13;0.65;;;;;;;;;;5113621;28;20125;-63
2023/10/15 08:42:13;;;;;;;4.47;0.57;;;;;;;;;;5113254;28;20036;-63
2023/10/15 08:44:42;;;;;;;3.88;1.00;;;;;;;;;;5110229;28;20075;-64
2023/10/15 08:47:13;;;;;;;3.08;0.60;;;;;;;;;;5098767;28;20092;-63
2023/10/15 08:49:50;;;;;;;5.22;0.52;;;;;;;;;;5113127;28;20077;-63
2023/10/15 08:52:16;;;;;;;4.45;0.77;;;;;;;;;;5092755;28;20578;-63
2023/10/15 08:54:44;;;;;;;3.95;0.60;;;;;;;;;;5095708;28;20048;-63
2023/10/15 08:57:11;;;;;;;5.60;1.17;;;;;;;;;;5098378;27;20049;-63
2023/10/15 08:59:38;;;;;;;5.20;2.00;;;;;;;;;;5121650;27;20044;-63
2023/10/15 09:02:05;;;;;;;3.25;0.80;;;;;;;;;;5078405;28;20048;-63
2023/10/15 09:04:32;;;;;;;3.90;0.80;;;;;;;;;;5112608;28;20165;-63
2023/10/15 09:07:01;;;;;;;6.13;1.25;;;;;;;;;;5111542;28;20051;-63
2023/10/15 09:09:32;;;;;;;5.63;1.35;;;;;;;;;;5119116;27;20054;-63
2023/10/15 09:11:58;;;;;;;6.68;0.95;;;;;;;;;;5110647;27;20412;-63
2023/10/15 09:14:36;;;;;;;6.80;2.15;;;;;;;;;;5117804;28;20127;-62
2023/10/15 09:17:02;;;;;;;3.45;0.90;;;;;;;;;;5119770;27;20130;-63
2023/10/15 09:19:31;;;;;;;4.03;1.00;;;;;;;;;;5110948;28;20069;-63
2023/10/15 09:21:57;;;;;;;4.28;1.00;;;;;;;;;;5106583;28;20130;-63
2023/10/15 09:24:23;;;;;;;5.03;1.00;;;;;;;;;;5100665;28;20122;-63
2023/10/15 09:26:50;;;;;;;9.88;1.85;;;;;;;;;;5110790;28;20047;-63
2023/10/15 09:29:20;;;;;;;2.95;0.60;;;;;;;;;;5094087;28;20051;-63
2023/10/15 09:31:47;;;;;;;6.93;0.88;;;;;;;;;;5096708;28;20044;-64
2023/10/15 09:34:13;;;;;;;3.42;0.77;;;;;;;;;;5096675;28;20044;-63
2023/10/15 09:36:39;;;;;;;6.60;1.10;;;;;;;;;;5091248;28;20035;-63
2023/10/15 09:39:12;;;;;;;5.55;0.90;;;;;;;;;;5118221;27;20658;-64
2023/10/15 09:41:40;;;;;;;6.47;1.02;;;;;;;;;;5100999;28;20043;-63
2023/10/15 09:44:07;;;;;;;8.30;1.10;;;;;;;;;;5100565;28;20043;-63
2023/10/15 09:46:33;;;;;;;4.40;1.00;;;;;;;;;;5117605;27;20130;-63
2023/10/15 09:49:04;;;;;;;3.38;1.45;;;;;;;;;;5104926;28;20458;-63
2023/10/15 09:51:32;;;;;;;5.38;1.00;;;;;;;;;;5096343;28;20082;-63
2023/10/15 09:53:59;;;;;;;6.72;0.90;;;;;;;;;;5097436;28;20057;-63
2023/10/15 09:56:26;;;;;;;9.75;1.27;;;;;;;;;;5114558;28;20541;-63
2023/10/15 09:58:53;;;;;;;5.60;1.10;;;;;;;;;;5135825;22;20504;-63
2023/10/15 10:01:26;;;;;;;8.75;1.92;;;;;;;;;;5099126;22;20052;-62
2023/10/15 10:04:19;;;;;;;10.18;1.20;;;;;;;;;;5076775;28;20048;-63
2023/10/15 10:06:48;;;;;;;5.07;1.20;;;;;;;;;;5074513;28;20523;-62
2023/10/15 10:09:21;;;;;;;9.55;2.30;;;;;;;;;;5084751;28;20511;-63
2023/10/15 10:11:57;;;;;;;7.05;1.42;;;;;;;;;;5074086;28;20421;-63
2023/10/15 10:14:35;;;;;;;5.88;1.20;;;;;;;;;;5072348;28;20044;-63
2023/10/15 10:17:02;;;;;;;9.70;1.40;;;;;;;;;;5070603;28;20041;-63
2023/10/15 10:19:31;;;;;;;6.13;1.17;;;;;;;;;;5072324;28;20074;-63
2023/10/15 10:21:58;;;;;;;9.20;1.10;;;;;;;;;;5074146;28;20392;-62
2023/10/15 10:24:24;;;;;;;6.75;1.00;;;;;;;;;;5069825;28;20079;-63
2023/10/15 10:26:54;;;;;;;6.57;1.13;;;;;;;;;;5072408;28;20071;-63
2023/10/15 10:29:20;;;;;;;8.45;1.67;;;;;;;;;;5070709;28;20040;-62
2023/10/15 10:31:47;;;;;;;12.32;1.15;;;;;;;;;;5071845;28;20045;-64
2023/10/15 10:34:14;;;;;;;5.00;1.40;;;;;;;;;;5069839;28;20447;-64
2023/10/15 10:36:41;;;;;;;23.67;7.38;;;;;;;;;;5072933;28;20120;-62
2023/10/15 10:39:18;;;;;;;4.10;0.90;;;;;;;;;;5072953;28;20051;-64
2023/10/15 10:41:45;;;;;;;10.65;1.77;;;;;;;;;;5074112;28;20052;-63
2023/10/15 10:44:23;;;;;;;5.63;1.08;;;;;;;;;;5069730;28;20492;-63
2023/10/15 10:46:52;;;;;;;7.63;1.23;;;;;;;;;;5070822;28;20041;-64
2023/10/15 10:49:27;;;;;;;11.00;2.22;;;;;;;;;;5072609;28;20518;-64
2023/10/15 10:52:05;;;;;;;12.05;3.28;;;;;;;;;;5054358;28;20131;-63
2023/10/15 10:54:31;;;;;;;7.47;1.35;;;;;;;;;;5073915;28;20144;-63
2023/10/15 10:56:59;;;;;;;5.20;0.73;;;;;;;;;;5073246;28;20055;-63
2023/10/15 10:59:27;;;;;;;21.63;5.32;;;;;;;;;;5073935;28;20048;-63
2023/10/15 11:01:53;;;;;;;5.88;1.42;;;;;;;;;;5075092;28;20053;-63
2023/10/15 11:04:19;;;;;;;9.10;2.30;;;;;;;;;;5083715;28;20082;-63
2023/10/15 11:06:45;;;;;;;11.95;5.55;;;;;;;;;;5074082;28;20053;-62
2023/10/15 11:09:15;;;;;;;13.35;7.95;;;;;;;;;;5071998;28;20063;-63
2023/10/15 11:11:47;;;;;;;8.52;1.55;;;;;;;;;;5062306;28;20053;-63
2023/10/15 11:14:13;;;;;;;10.23;1.83;;;;;;;;;;5073639;28;20051;-63
2023/10/15 11:16:43;;;;;;;21.55;9.32;;;;;;;;;;5070869;28;20049;-63
2023/10/15 11:19:16;;;;;;;5.72;1.85;;;;;;;;;;5073432;28;20044;-63
2023/10/15 11:21:42;;;;;;;5.70;0.90;;;;;;;;;;5078928;28;20441;-63
2023/10/15 11:24:11;;;;;;;10.25;1.40;;;;;;;;;;5073282;28;20036;-63
2023/10/15 11:26:41;;;;;;;7.68;0.80;;;;;;;;;;5071190;28;20393;-63
2023/10/15 11:29:08;;;;;;;9.23;1.08;;;;;;;;;;5074896;28;20177;-63
2023/10/15 11:31:34;;;;;;;2.88;0.43;;;;;;;;;;5079509;28;20499;-63
2023/10/15 11:34:01;;;;;;;4.80;0.70;;;;;;;;;;5072463;28;20048;-63
2023/10/15 11:36:29;;;;;;;5.18;0.75;;;;;;;;;;5073868;28;20044;-63
2023/10/15 11:38:55;;;;;;;5.90;0.70;;;;;;;;;;5079169;28;20098;-63
2023/10/15 11:41:22;;;;;;;2.00;0.63;;;;;;;;;;5074437;28;20481;-63
2023/10/15 11:43:49;;;;;;;3.75;0.65;;;;;;;;;;5076780;28;20055;-63
2023/10/15 11:46:19;;;;;;;5.10;0.73;;;;;;;;;;5073049;28;20049;-63
2023/10/15 11:48:45;;;;;;;7.82;0.82;;;;;;;;;;5080059;28;20056;-63
2023/10/15 11:51:11;;;;;;;8.05;0.93;;;;;;;;;;5074721;28;20519;-63
2023/10/15 11:53:41;;;;;;;6.57;1.10;;;;;;;;;;5071318;28;20068;-63
2023/10/15 11:56:16;;;;;;;7.32;1.25;;;;;;;;;;5070625;28;20127;-63
2023/10/15 11:58:45;;;;;;;9.90;0.82;;;;;;;;;;5071658;28;20051;-63
2023/10/15 12:01:14;;;;;;;2.45;0.60;;;;;;;;;;5069848;28;20052;-63
2023/10/15 12:03:43;;;;;;;8.65;0.95;;;;;;;;;;5070107;28;20084;-63
2023/10/15 12:06:09;;;;;;;3.17;1.00;;;;;;;;;;5070788;28;20045;-63
2023/10/15 12:08:35;;;;;;;3.42;1.40;;;;;;;;;;5071863;28;20036;-63
2023/10/15 12:11:01;;;;;;;3.85;1.00;;;;;;;;;;5069366;28;20381;-63
2023/10/15 12:13:27;;;;;;;3.85;0.75;;;;;;;;;;5071397;28;20048;-63
2023/10/15 12:15:53;;;;;;;7.18;1.40;;;;;;;;;;5071078;28;20044;-63
2023/10/15 12:18:19;;;;;;;6.90;1.40;;;;;;;;;;5068671;28;20041;-63
2023/10/15 12:20:45;;;;;;;4.45;1.30;;;;;;;;;;5069710;28;20068;-63
2023/10/15 12:23:11;;;;;;;7.07;1.35;;;;;;;;;;5072691;28;20040;-63
2023/10/15 12:25:38;;;;;;;7.25;1.75;;;;;;;;;;5064117;28;20045;-63
2023/10/15 12:28:07;;;;;;;6.35;1.40;;;;;;;;;;5065376;28;20115;-63
2023/10/15 12:30:34;;;;;;;8.43;1.17;;;;;;;;;;5069632;28;20056;-64
2023/10/15 12:33:00;;;;;;;8.73;1.95;;;;;;;;;;5070156;28;20044;-63
2023/10/15 12:35:29;;;;;;;10.35;2.40;;;;;;;;;;5061871;28;20044;-63
2023/10/15 12:38:02;;;;;;;10.55;2.22;;;;;;;;;;5072770;28;20056;-63
2023/10/15 12:40:34;;;;;;;14.27;4.35;;;;;;;;;;5072517;28;20055;-63
2023/10/15 12:43:01;;;;;;;12.65;2.85;;;;;;;;;;5067360;28;20048;-63
2023/10/15 12:45:28;;;;;;;6.57;1.30;;;;;;;;;;5091817;28;20059;-63
2023/10/15 12:47:58;;;;;;;7.30;1.95;;;;;;;;;;5092509;28;20097;-63
2023/10/15 12:50:24;;;;;;;15.55;2.50;;;;;;;;;;5052246;28;20055;-63
2023/10/15 12:52:52;;;;;;;6.63;1.27;;;;;;;;;;5052663;28;20049;-63
2023/10/15 12:55:19;;;;;;;6.22;1.40;;;;;;;;;;5051199;28;20041;-62
2023/10/15 12:57:48;;;;;;;5.72;1.35;;;;;;;;;;5052662;28;20052;-63
2023/10/15 13:00:17;;;;;;;6.72;1.30;;;;;;;;;;5055836;28;20049;-63
2023/10/15 13:02:50;;;;;;;9.50;2.28;;;;;;;;;;5067733;28;20421;-63
2023/10/15 13:05:19;;;;;;;5.75;1.95;;;;;;;;;;5051379;28;20049;-63
2023/10/15 13:07:45;;;;;;;9.35;2.05;;;;;;;;;;5051220;28;20544;-63
2023/10/15 13:10:13;;;;;;;5.75;1.27;;;;;;;;;;5085873;28;20043;-64
2023/10/15 13:12:42;;;;;;;4.05;0.88;;;;;;;;;;5091512;28;20104;-63
2023/10/15 13:15:10;;;;;;;3.78;0.57;;;;;;;;;;5091288;28;20047;-63
2023/10/15 13:17:37;;;;;;;3.50;0.80;;;;;;;;;;5092815;28;20048;-63
2023/10/15 13:20:06;;;;;;;5.20;0.47;;;;;;;;;;5090709;28;20052;-63
2023/10/15 13:22:32;;;;;;;5.40;0.73;;;;;;;;;;5074618;28;20040;-63
2023/10/15 13:24:58;;;;;;;3.83;0.60;;;;;;;;;;5091375;28;20052;-63
2023/10/15 13:27:25;;;;;;;4.20;0.75;;;;;;;;;;5090871;28;20051;-64
2023/10/15 13:29:51;;;;;;;6.57;1.02;;;;;;;;;;5092547;28;20051;-63
2023/10/15 13:32:17;;;;;;;11.88;1.33;;;;;;;;;;5078237;28;20041;-64
2023/10/15 13:34:43;;;;;;;5.32;0.63;;;;;;;;;;5052250;28;20045;-63
2023/10/15 13:37:12;;;;;;;6.05;0.77;;;;;;;;;;5051795;28;20084;-63
2023/10/15 13:39:39;;;;;;;5.25;0.70;;;;;;;;;;5051027;28;20547;-64
2023/10/15 13:42:05;;;;;;;4.68;1.20;;;;;;;;;;5050777;28;20511;-64
2023/10/15 13:44:32;;;;;;;4.95;0.98;;;;;;;;;;5051293;28;20055;-63
2023/10/15 13:46:58;;;;;;;4.28;0.45;;;;;;;;;;5050655;28;20127;-63
2023/10/15 13:49:24;;;;;;;6.53;1.00;;;;;;;;;;5053126;28;20119;-64
2023/10/15 13:51:50;;;;;;;2.97;0.70;;;;;;;;;;5084143;28;20044;-64
2023/10/15 13:54:16;;;;;;;4.07;0.63;;;;;;;;;;5090827;28;20043;-64
2023/10/15 13:56:42;;;;;;;8.57;1.00;;;;;;;;;;5091477;28;20115;-65
2023/10/15 13:59:12;;;;;;;3.17;0.82;;;;;;;;;;5088632;28;20071;-64
2023/10/15 14:01:38;;;;;;;2.83;1.03;;;;;;;;;;5091759;28;20123;-64
2023/10/15 14:04:07;;;;;;;4.63;1.17;;;;;;;;;;5091950;28;20044;-65
2023/10/15 14:06:33;;;;;;;5.75;1.00;;;;;;;;;;5091945;28;20048;-63
2023/10/15 14:09:00;;;;;;;8.05;1.17;;;;;;;;;;5092303;28;20044;-64
2023/10/15 14:11:27;;;;;;;8.90;2.00;;;;;;;;;;5091860;28;20058;-64
2023/10/15 14:13:53;;;;;;;6.95;1.40;;;;;;;;;;5089554;28;20408;-64
2023/10/15 14:16:19;;;;;;;5.55;1.13;;;;;;;;;;5090597;28;20051;-63
2023/10/15 14:18:47;;;;;;;6.90;0.90;;;;;;;;;;5086669;28;20140;-63
2023/10/15 14:21:13;;;;;;;9.75;1.00;;;;;;;;;;5054470;28;20476;-63
2023/10/15 14:23:39;;;;;;;5.75;1.20;;;;;;;;;;5055953;28;20513;-63
2023/10/15 14:26:05;;;;;;;4.40;0.90;;;;;;;;;;5089986;28;20052;-63
2023/10/15 14:28:31;;;;;;;7.82;0.88;;;;;;;;;;5077825;28;20052;-64
2023/10/15 14:30:58;;;;;;;8.38;0.93;;;;;;;;;;5095198;28;20131;-64
2023/10/15 14:33:24;;;;;;;5.60;2.15;;;;;;;;;;5095097;28;20048;-64
2023/10/15 14:35:50;;;;;;;3.70;0.70;;;;;;;;;;5074277;28;20506;-63
2023/10/15 14:38:16;;;;;;;3.72;0.80;;;;;;;;;;5094036;28;20043;-64
2023/10/15 14:40:44;;;;;;;7.80;0.82;;;;;;;;;;5092799;28;20131;-63
2023/10/15 14:43:11;;;;;;;5.10;0.77;;;;;;;;;;5078780;28;20169;-65
2023/10/15 14:45:37;;;;;;;5.07;0.90;;;;;;;;;;5095275;28;20051;-64
2023/10/15 14:48:04;;;;;;;5.80;1.23;;;;;;;;;;5095030;28;20089;-63
2023/10/15 14:50:30;;;;;;;3.38;0.65;;;;;;;;;;5062063;28;20047;-64
2023/10/15 14:52:56;;;;;;;5.45;1.67;;;;;;;;;;5093248;28;20056;-64
2023/10/15 14:55:22;;;;;;;9.00;1.02;;;;;;;;;;5094948;28;20465;-64
2023/10/15 14:57:50;;;;;;;3.10;0.90;;;;;;;;;;5094002;28;20044;-64
2023/10/15 15:00:16;;;;;;;4.32;1.15;;;;;;;;;;5094377;28;20059;-64